North Sandwich, New Hampshire
Current Conditions -  °F | °C
As of 8:15 AM on Sunday 23 Nov 2014 (Local Time) from K1P1 Reporting Station
Overcast Overcast  
Wind Chill: 38°   Ceiling: 2300
Heat Index: 38°   Visibility: 7mi
Dew Point: 38°   Wind: 0mph
Humidity: 100%   Direction: NA
Pressure: 30.04"   Gusts: NA
Location:  43.84°N, 71.4°W
Report Text: K1P1 231315Z AUTO 00000KT 7SM OVC023 04/04 A3004 RMK AO2 T00350035
Loading
Personal Weather Stations






























Interactive Weather Map New forecast layout! Learn more

10-Day Weather Forecast

Advertisements
Track Severe Weather on mobile